Terminal Aerodrome Forecast
Issued by NWS

Home | Current Version | Previous Version | Text Only | Print | Product List | Glossary On
Versions: 1 2 3 4 5 6 7 8 9 10 11 12 13 14 15 16 17 18 19 20 21 22
000
FTUS45 KFGZ 290100 AAA
TAFSEZ
TAF AMD
KSEZ 290155Z 2902/2924 VRB06KT P6SM SCT120
      TEMPO 2902/2904 VRB15G25KT 5SM TSRA BKN080CB
     FM291000 VRB04KT P6SM BKN150
     FM292000 24008KT P6SM SCT080 BKN150 PROB30 2920/2924 5SM -TSRA
      BKN070CB=

USA.gov is the U.S. government's official web portal to all federal, state and local government web resources and services.